Airport Name : Kahului

Other Name : Kahului

ICAO : PHOG

IATA : OGG

FAA : POGG

Latitude : 20.89865

Longitude : -156.430458

Country : United States

Local Date and Time : 20 Jul 2024 20:48

 

TAF (Terminal Aerodrome Forecast)

PHOG 210521Z 2106/2206 05015G23KT P6SM FEW030 SCT050 FM210700 06008KT P6SM FEW025 SCT040 FM211900 05015G23KT P6SM FEW030 SCT050 FM212300 05018G26KT P6SM FEW030 FEW050 FM220500 05013G20KT P6SM FEW030 FEW040

 

METAR (METeorological Aerodrome Report)

PHOG 210554Z 07009KT 10SM FEW045 SCT055 26/19 A3003 RMK AO2 PK WND 06027/0455 SLP174 T02610194 10322 20256 53023

PHOG 210454Z 07020G31KT 10SM FEW050 27/19 A2999 RMK AO2 PK WND 06031/0454 SLP160 T02670194

PHOG 210354Z 05017G26KT 10SM FEW045 28/21 A2997 RMK AO2 PK WND 06028/0340 SLP155 T02830206

PHOG 210254Z 05019G27KT 10SM SCT050 29/19 A2997 RMK AO2 PK WND 04029/0222 SLP152 T02940194 56012